PWSweather.com
Personal Weather Stations
Station Observations
NIGHT1
EastleighGB

EastleighGB

Lat: 50.966307, Lon: -1.380982

Elevation: 78

Station Type: Davis VP2 with daytime FARS

Latest ConditionsUpdated 9:40:00 AM GMT Thursday, Apr 2, 2015
Currently Today's Max Today's Min Today's Average
Temperature 45.3°F7.4°C 51.6°F10.9°C 44.0°F6.7°C 48.5°F9.2°C
Dew Point 43.1°F6.2°C 48.3°F9.1°C 42.4°F5.8°C 46.1°F7.8°C
Winds 3.0 mph NW4.8 kmh NW 11.3 mph W18.2 kmh W - 5.9 mph 9.5 kmh
Wind Gusts 9.0 mph14.5 kmh 24.0 mph38.6 kmh - -
Humidity 92% 94% 87% 92%
Pressure 30.14 in1020.7 mb 30.14 in1020.7 mb 30.00 in1015.9 mb -
Precipitation - 0.04 in1.0 mm - -
Hour Temp Dew Point Humidity Winds Wind Gusts Pressure Precip Precip Rate Daily Precip Total
09:40 AM 45.3°F7.4°C 43.1°F6.2°C 92% 3.0 mph NW4.8 kmh NW 9.0 mph14.5 kmh 30.14 in1020.7 mb 0.00 in0.0 mm 0.00 in0.0 mm 0.04 in1.0 mm
09:35 AM 45.2°F7.3°C 43.0°F6.1°C 92% 3.0 mph NNW4.8 kmh NNW 9.0 mph14.5 kmh 30.14 in1020.7 mb 0.00 in0.0 mm 0.00 in0.0 mm 0.04 in1.0 mm
09:30 AM 45.2°F7.3°C 43.0°F6.1°C 92% 2.5 mph N4.0 kmh N 9.0 mph14.5 kmh 30.14 in1020.7 mb 0.00 in0.0 mm 0.00 in0.0 mm 0.04 in1.0 mm
09:25 AM 45.1°F7.3°C 42.9°F6.1°C 92% 2.0 mph N3.2 kmh N 8.0 mph12.9 kmh 30.14 in1020.7 mb 0.00 in0.0 mm 0.00 in0.0 mm 0.04 in1.0 mm
09:20 AM 45.2°F7.3°C 43.0°F6.1°C 92% 2.5 mph N4.0 kmh N 6.0 mph9.7 kmh 30.14 in1020.7 mb 0.00 in0.0 mm 0.00 in0.0 mm 0.04 in1.0 mm
09:15 AM 45.3°F7.4°C 43.4°F6.3°C 93% 3.0 mph NNE4.8 kmh NNE 7.0 mph11.3 kmh 30.13 in1020.3 mb 0.00 in0.0 mm 0.00 in0.0 mm 0.04 in1.0 mm
09:10 AM 45.0°F7.2°C 43.1°F6.2°C 93% 3.0 mph NNE4.8 kmh NNE 8.0 mph12.9 kmh 30.13 in1020.3 mb 0.00 in0.0 mm 0.00 in0.0 mm 0.04 in1.0 mm
09:05 AM 45.2°F7.3°C 43.6°F6.4°C 94% 2.9 mph N4.7 kmh N 8.0 mph12.9 kmh 30.13 in1020.3 mb 0.00 in0.0 mm 0.00 in0.0 mm 0.04 in1.0 mm
09:00 AM 45.0°F7.2°C 43.4°F6.3°C 94% 2.9 mph NNE4.7 kmh NNE 5.0 mph8.0 kmh 30.13 in1020.3 mb 0.00 in0.0 mm 0.00 in0.0 mm 0.04 in1.0 mm
08:55 AM 44.9°F7.2°C 43.3°F6.3°C 94% 2.5 mph NE4.0 kmh NE 7.0 mph11.3 kmh 30.13 in1020.3 mb 0.00 in0.0 mm 0.00 in0.0 mm 0.04 in1.0 mm
08:50 AM 44.8°F7.1°C 43.2°F6.2°C 94% 2.4 mph NNE3.9 kmh NNE 8.0 mph12.9 kmh 30.13 in1020.3 mb 0.00 in0.0 mm 0.00 in0.0 mm 0.04 in1.0 mm
08:45 AM 44.9°F7.2°C 43.3°F6.3°C 94% 2.9 mph NNE4.7 kmh NNE 8.0 mph12.9 kmh 30.13 in1020.3 mb 0.00 in0.0 mm 0.00 in0.0 mm 0.04 in1.0 mm
08:40 AM 45.0°F7.2°C 43.4°F6.3°C 94% 2.7 mph N4.3 kmh N 7.0 mph11.3 kmh 30.12 in1020.0 mb 0.01 in0.3 mm 0.00 in0.0 mm 0.04 in1.0 mm
08:35 AM 44.6°F7.0°C 43.0°F6.1°C 94% 2.2 mph NNE3.5 kmh NNE 8.0 mph12.9 kmh 30.12 in1020.0 mb 0.01 in0.3 mm 0.00 in0.0 mm 0.04 in1.0 mm
08:30 AM 44.7°F7.1°C 43.1°F6.2°C 94% 2.4 mph N3.9 kmh N 8.0 mph12.9 kmh 30.12 in1020.0 mb 0.01 in0.3 mm 0.00 in0.0 mm 0.04 in1.0 mm
08:25 AM 44.7°F7.1°C 43.1°F6.2°C 94% 2.9 mph NNE4.7 kmh NNE 7.0 mph11.3 kmh 30.12 in1020.0 mb 0.01 in0.3 mm 0.00 in0.0 mm 0.04 in1.0 mm
08:20 AM 44.5°F6.9°C 42.9°F6.1°C 94% 2.7 mph NNE4.3 kmh NNE 7.0 mph11.3 kmh 30.12 in1020.0 mb 0.01 in0.3 mm 0.00 in0.0 mm 0.04 in1.0 mm
08:15 AM 44.4°F6.9°C 42.8°F6.0°C 94% 2.3 mph NNE3.7 kmh NNE 9.0 mph14.5 kmh 30.11 in1019.6 mb 0.01 in0.3 mm 0.00 in0.0 mm 0.04 in1.0 mm
08:10 AM 44.5°F6.9°C 42.9°F6.1°C 94% 2.6 mph NNE4.2 kmh NNE 9.0 mph14.5 kmh 30.11 in1019.6 mb 0.01 in0.3 mm 0.00 in0.0 mm 0.04 in1.0 mm
08:05 AM 44.4°F6.9°C 42.8°F6.0°C 94% 3.0 mph NNE4.8 kmh NNE 6.0 mph9.7 kmh 30.11 in1019.6 mb 0.01 in0.3 mm 0.00 in0.0 mm 0.04 in1.0 mm
08:00 AM 44.0°F6.7°C 42.4°F5.8°C 94% 3.0 mph NNE4.8 kmh NNE 7.0 mph11.3 kmh 30.11 in1019.6 mb 0.01 in0.3 mm 0.00 in0.0 mm 0.04 in1.0 mm
07:55 AM 44.0°F6.7°C 42.4°F5.8°C 94% 2.9 mph NE4.7 kmh NE 7.0 mph11.3 kmh 30.11 in1019.6 mb 0.01 in0.3 mm 0.00 in0.0 mm 0.04 in1.0 mm
07:50 AM 44.0°F6.7°C 42.4°F5.8°C 94% 2.4 mph NE3.9 kmh NE 7.0 mph11.3 kmh 30.11 in1019.6 mb 0.01 in0.3 mm 0.00 in0.0 mm 0.04 in1.0 mm
07:45 AM 44.5°F6.9°C 42.9°F6.1°C 94% 2.0 mph NE3.2 kmh NE 8.0 mph12.9 kmh 30.10 in1019.3 mb 0.01 in0.3 mm 0.12 in3.0 mm 0.04 in1.0 mm
07:40 AM 45.0°F7.2°C 43.4°F6.3°C 94% 2.2 mph NNE3.5 kmh NNE 8.0 mph12.9 kmh 30.10 in1019.3 mb 0.00 in0.0 mm 0.00 in0.0 mm 0.03 in0.8 mm
07:35 AM 45.4°F7.4°C 43.8°F6.6°C 94% 2.6 mph N4.2 kmh N 8.0 mph12.9 kmh 30.09 in1019.0 mb 0.00 in0.0 mm 0.00 in0.0 mm 0.03 in0.8 mm
07:30 AM 45.5°F7.5°C 43.9°F6.6°C 94% 2.9 mph N4.7 kmh N 8.0 mph12.9 kmh 30.09 in1019.0 mb 0.00 in0.0 mm 0.00 in0.0 mm 0.03 in0.8 mm
07:25 AM 45.5°F7.5°C 43.9°F6.6°C 94% 3.0 mph NNE4.8 kmh NNE 8.0 mph12.9 kmh 30.09 in1019.0 mb 0.01 in0.3 mm 0.00 in0.0 mm 0.03 in0.8 mm
07:20 AM 45.7°F7.6°C 44.1°F6.7°C 94% 2.7 mph N4.3 kmh N 8.0 mph12.9 kmh 30.09 in1019.0 mb 0.01 in0.3 mm 0.00 in0.0 mm 0.03 in0.8 mm
07:15 AM 45.9°F7.7°C 44.3°F6.8°C 94% 2.2 mph N3.5 kmh N 8.0 mph12.9 kmh 30.09 in1019.0 mb 0.01 in0.3 mm 0.00 in0.0 mm 0.03 in0.8 mm
07:10 AM 45.8°F7.7°C 44.2°F6.8°C 94% 2.0 mph N3.2 kmh N 8.0 mph12.9 kmh 30.08 in1018.6 mb 0.01 in0.3 mm 0.00 in0.0 mm 0.03 in0.8 mm
07:05 AM 45.9°F7.7°C 44.3°F6.8°C 94% 1.8 mph N2.9 kmh N 8.0 mph12.9 kmh 30.08 in1018.6 mb 0.02 in0.5 mm 0.00 in0.0 mm 0.03 in0.8 mm
07:00 AM 46.0°F7.8°C 44.1°F6.7°C 93% 1.7 mph N2.7 kmh N 5.0 mph8.0 kmh 30.08 in1018.6 mb 0.02 in0.5 mm 0.00 in0.0 mm 0.03 in0.8 mm
06:55 AM 46.1°F7.8°C 44.2°F6.8°C 93% 1.9 mph N3.1 kmh N 5.0 mph8.0 kmh 30.07 in1018.3 mb 0.02 in0.5 mm 0.00 in0.0 mm 0.03 in0.8 mm
06:50 AM 46.1°F7.8°C 44.2°F6.8°C 93% 2.0 mph NNW3.2 kmh NNW 5.0 mph8.0 kmh 30.07 in1018.3 mb 0.02 in0.5 mm 0.00 in0.0 mm 0.03 in0.8 mm
06:45 AM 46.1°F7.8°C 44.2°F6.8°C 93% 2.0 mph NNW3.2 kmh NNW 5.0 mph8.0 kmh 30.07 in1018.3 mb 0.02 in0.5 mm 0.00 in0.0 mm 0.03 in0.8 mm
06:40 AM 46.3°F7.9°C 44.4°F6.9°C 93% 2.0 mph N3.2 kmh N 8.0 mph12.9 kmh 30.07 in1018.3 mb 0.02 in0.5 mm 0.00 in0.0 mm 0.03 in0.8 mm
06:35 AM 46.3°F7.9°C 44.1°F6.7°C 92% 2.1 mph N3.4 kmh N 9.0 mph14.5 kmh 30.06 in1017.9 mb 0.02 in0.5 mm 0.00 in0.0 mm 0.03 in0.8 mm
06:30 AM 46.3°F7.9°C 44.1°F6.7°C 92% 2.6 mph N4.2 kmh N 9.0 mph14.5 kmh 30.06 in1017.9 mb 0.02 in0.5 mm 0.12 in3.0 mm 0.03 in0.8 mm
06:25 AM 46.5°F8.1°C 44.0°F6.7°C 91% 3.2 mph N5.1 kmh N 6.0 mph9.7 kmh 30.06 in1017.9 mb 0.01 in0.3 mm 0.00 in0.0 mm 0.02 in0.5 mm
06:20 AM 46.7°F8.2°C 44.2°F6.8°C 91% 3.8 mph NNE6.1 kmh NNE 7.0 mph11.3 kmh 30.05 in1017.6 mb 0.01 in0.3 mm 0.00 in0.0 mm 0.02 in0.5 mm
06:15 AM 47.2°F8.4°C 44.4°F6.9°C 90% 4.3 mph NNE6.9 kmh NNE 11.0 mph17.7 kmh 30.05 in1017.6 mb 0.01 in0.3 mm 0.00 in0.0 mm 0.02 in0.5 mm
06:10 AM 47.8°F8.8°C 44.7°F7.1°C 89% 5.1 mph NNE8.2 kmh NNE 11.0 mph17.7 kmh 30.05 in1017.6 mb 0.01 in0.3 mm 0.12 in3.0 mm 0.02 in0.5 mm
06:05 AM 49.4°F9.7°C 45.7°F7.6°C 87% 7.0 mph N11.3 kmh N 14.0 mph22.5 kmh 30.05 in1017.6 mb 0.00 in0.0 mm 0.00 in0.0 mm 0.02 in0.5 mm
06:00 AM 51.4°F10.8°C 47.7°F8.7°C 87% 8.6 mph WNW13.8 kmh WNW 16.0 mph25.7 kmh 30.04 in1017.3 mb 0.00 in0.0 mm 0.00 in0.0 mm 0.02 in0.5 mm
05:55 AM 51.4°F10.8°C 47.7°F8.7°C 87% 8.9 mph WNW14.3 kmh WNW 16.0 mph25.7 kmh 30.03 in1016.9 mb 0.00 in0.0 mm 0.00 in0.0 mm 0.02 in0.5 mm
05:50 AM 51.4°F10.8°C 47.7°F8.7°C 87% 8.8 mph W14.2 kmh W 17.0 mph27.4 kmh 30.02 in1016.6 mb 0.00 in0.0 mm 0.00 in0.0 mm 0.02 in0.5 mm
05:45 AM 51.4°F10.8°C 47.7°F8.7°C 87% 8.9 mph W14.3 kmh W 17.0 mph27.4 kmh 30.02 in1016.6 mb 0.00 in0.0 mm 0.00 in0.0 mm 0.02 in0.5 mm
05:40 AM 51.5°F10.8°C 47.8°F8.8°C 87% 8.9 mph W14.3 kmh W 19.0 mph30.6 kmh 30.02 in1016.6 mb 0.00 in0.0 mm 0.00 in0.0 mm 0.02 in0.5 mm
05:35 AM 51.4°F10.8°C 47.7°F8.7°C 87% 9.1 mph W14.6 kmh W 19.0 mph30.6 kmh 30.02 in1016.6 mb 0.00 in0.0 mm 0.00 in0.0 mm 0.02 in0.5 mm
05:30 AM 51.5°F10.8°C 47.8°F8.8°C 87% 10.1 mph WNW16.3 kmh WNW 18.0 mph29.0 kmh 30.02 in1016.6 mb 0.00 in0.0 mm 0.00 in0.0 mm 0.02 in0.5 mm
05:25 AM 51.5°F10.8°C 47.8°F8.8°C 87% 11.3 mph W18.2 kmh W 19.0 mph30.6 kmh 30.01 in1016.3 mb 0.00 in0.0 mm 0.00 in0.0 mm 0.02 in0.5 mm
05:20 AM 51.5°F10.8°C 47.8°F8.8°C 87% 11.0 mph W17.7 kmh W 24.0 mph38.6 kmh 30.02 in1016.6 mb 0.00 in0.0 mm 0.00 in0.0 mm 0.02 in0.5 mm
05:15 AM 51.5°F10.8°C 47.8°F8.8°C 87% 9.8 mph WNW15.8 kmh WNW 24.0 mph38.6 kmh 30.01 in1016.3 mb 0.00 in0.0 mm 0.00 in0.0 mm 0.02 in0.5 mm
05:10 AM 51.5°F10.8°C 47.8°F8.8°C 87% 10.1 mph W16.3 kmh W 22.0 mph35.4 kmh 30.01 in1016.3 mb 0.00 in0.0 mm 0.00 in0.0 mm 0.02 in0.5 mm
05:05 AM 51.5°F10.8°C 47.8°F8.8°C 87% 10.7 mph W17.2 kmh W 19.0 mph30.6 kmh 30.01 in1016.3 mb 0.00 in0.0 mm 0.00 in0.0 mm 0.02 in0.5 mm
05:00 AM 51.5°F10.8°C 47.8°F8.8°C 87% 10.1 mph W16.3 kmh W 23.0 mph37.0 kmh 30.00 in1015.9 mb 0.00 in0.0 mm 0.00 in0.0 mm 0.02 in0.5 mm
04:55 AM 51.6°F10.9°C 47.9°F8.8°C 87% 9.2 mph W14.8 kmh W 23.0 mph37.0 kmh 30.00 in1015.9 mb 0.00 in0.0 mm 0.00 in0.0 mm 0.02 in0.5 mm
04:50 AM 51.5°F10.8°C 47.8°F8.8°C 87% 8.6 mph W13.8 kmh W 23.0 mph37.0 kmh 30.00 in1015.9 mb 0.00 in0.0 mm 0.00 in0.0 mm 0.02 in0.5 mm
04:45 AM 51.5°F10.8°C 47.8°F8.8°C 87% 8.9 mph W14.3 kmh W 23.0 mph37.0 kmh 30.00 in1015.9 mb 0.00 in0.0 mm 0.00 in0.0 mm 0.02 in0.5 mm
04:40 AM 51.5°F10.8°C 47.8°F8.8°C 87% 9.7 mph W15.6 kmh W 22.0 mph35.4 kmh 30.00 in1015.9 mb 0.00 in0.0 mm 0.00 in0.0 mm 0.02 in0.5 mm
04:35 AM 51.5°F10.8°C 47.8°F8.8°C 87% 9.7 mph W15.6 kmh W 22.0 mph35.4 kmh 30.00 in1015.9 mb 0.00 in0.0 mm 0.00 in0.0 mm 0.02 in0.5 mm
04:30 AM 51.5°F10.8°C 48.1°F8.9°C 88% 9.7 mph W15.6 kmh W 22.0 mph35.4 kmh 30.00 in1015.9 mb 0.00 in0.0 mm 0.00 in0.0 mm 0.02 in0.5 mm
04:25 AM 51.5°F10.8°C 48.1°F8.9°C 88% 10.0 mph W16.1 kmh W 20.0 mph32.2 kmh 30.00 in1015.9 mb 0.00 in0.0 mm 0.00 in0.0 mm 0.02 in0.5 mm
04:20 AM 51.5°F10.8°C 48.1°F8.9°C 88% 9.9 mph W15.9 kmh W 22.0 mph35.4 kmh 30.00 in1015.9 mb 0.00 in0.0 mm 0.00 in0.0 mm 0.02 in0.5 mm
04:15 AM 51.5°F10.8°C 48.1°F8.9°C 88% 9.4 mph W15.1 kmh W 22.0 mph35.4 kmh 30.00 in1015.9 mb 0.00 in0.0 mm 0.00 in0.0 mm 0.02 in0.5 mm
04:10 AM 51.4°F10.8°C 48.0°F8.9°C 88% 8.6 mph W13.8 kmh W 22.0 mph35.4 kmh 30.00 in1015.9 mb 0.00 in0.0 mm 0.00 in0.0 mm 0.02 in0.5 mm
04:05 AM 51.4°F10.8°C 48.0°F8.9°C 88% 8.1 mph W13.0 kmh W 22.0 mph35.4 kmh 30.00 in1015.9 mb 0.00 in0.0 mm 0.00 in0.0 mm 0.02 in0.5 mm
04:00 AM 51.3°F10.7°C 48.2°F9.0°C 89% 8.5 mph W13.7 kmh W 20.0 mph32.2 kmh 30.00 in1015.9 mb 0.00 in0.0 mm 0.00 in0.0 mm 0.02 in0.5 mm
03:55 AM 51.2°F10.7°C 48.1°F8.9°C 89% 9.0 mph W14.5 kmh W 22.0 mph35.4 kmh 30.00 in1015.9 mb 0.00 in0.0 mm 0.00 in0.0 mm 0.02 in0.5 mm
03:50 AM 51.3°F10.7°C 48.2°F9.0°C 89% 8.5 mph W13.7 kmh W 22.0 mph35.4 kmh 30.00 in1015.9 mb 0.00 in0.0 mm 0.00 in0.0 mm 0.02 in0.5 mm
03:45 AM 51.2°F10.7°C 48.1°F8.9°C 89% 7.8 mph W12.6 kmh W 20.0 mph32.2 kmh 30.00 in1015.9 mb 0.00 in0.0 mm 0.00 in0.0 mm 0.02 in0.5 mm
03:40 AM 51.0°F10.6°C 48.2°F9.0°C 90% 7.3 mph WSW11.7 kmh WSW 16.0 mph25.7 kmh 30.00 in1015.9 mb 0.00 in0.0 mm 0.00 in0.0 mm 0.02 in0.5 mm
03:35 AM 51.0°F10.6°C 48.2°F9.0°C 90% 7.0 mph WSW11.3 kmh WSW 14.0 mph22.5 kmh 30.00 in1015.9 mb 0.00 in0.0 mm 0.00 in0.0 mm 0.02 in0.5 mm
03:30 AM 50.9°F10.5°C 48.1°F8.9°C 90% 7.3 mph WSW11.7 kmh WSW 16.0 mph25.7 kmh 30.00 in1015.9 mb 0.00 in0.0 mm 0.00 in0.0 mm 0.02 in0.5 mm
03:25 AM 50.8°F10.4°C 48.3°F9.1°C 91% 7.6 mph WSW12.2 kmh WSW 17.0 mph27.4 kmh 30.00 in1015.9 mb 0.00 in0.0 mm 0.00 in0.0 mm 0.02 in0.5 mm
03:20 AM 50.7°F10.4°C 48.2°F9.0°C 91% 6.6 mph WSW10.6 kmh WSW 21.0 mph33.8 kmh 30.00 in1015.9 mb 0.00 in0.0 mm 0.00 in0.0 mm 0.02 in0.5 mm
03:15 AM 50.6°F10.3°C 48.1°F8.9°C 91% 5.8 mph WSW9.3 kmh WSW 21.0 mph33.8 kmh 30.00 in1015.9 mb 0.00 in0.0 mm 0.00 in0.0 mm 0.02 in0.5 mm
03:10 AM 50.5°F10.3°C 48.3°F9.1°C 92% 6.5 mph WSW10.5 kmh WSW 12.0 mph19.3 kmh 30.00 in1015.9 mb 0.00 in0.0 mm 0.00 in0.0 mm 0.02 in0.5 mm
03:05 AM 50.5°F10.3°C 48.3°F9.1°C 92% 7.1 mph WSW11.4 kmh WSW 12.0 mph19.3 kmh 30.00 in1015.9 mb 0.00 in0.0 mm 0.00 in0.0 mm 0.02 in0.5 mm
03:00 AM 50.5°F10.3°C 48.3°F9.1°C 92% 7.8 mph WSW12.6 kmh WSW 14.0 mph22.5 kmh 30.01 in1016.3 mb 0.00 in0.0 mm 0.00 in0.0 mm 0.02 in0.5 mm
02:55 AM 50.5°F10.3°C 48.3°F9.1°C 92% 8.2 mph WSW13.2 kmh WSW 19.0 mph30.6 kmh 30.01 in1016.3 mb 0.00 in0.0 mm 0.00 in0.0 mm 0.02 in0.5 mm
02:50 AM 50.4°F10.2°C 48.2°F9.0°C 92% 7.6 mph WSW12.2 kmh WSW 19.0 mph30.6 kmh 30.01 in1016.3 mb 0.00 in0.0 mm 0.00 in0.0 mm 0.02 in0.5 mm
02:45 AM 50.3°F10.2°C 48.1°F8.9°C 92% 7.1 mph WSW11.4 kmh WSW 14.0 mph22.5 kmh 30.01 in1016.3 mb 0.00 in0.0 mm 0.00 in0.0 mm 0.02 in0.5 mm
02:40 AM 50.2°F10.1°C 48.3°F9.1°C 93% 6.5 mph WSW10.5 kmh WSW 14.0 mph22.5 kmh 30.01 in1016.3 mb 0.00 in0.0 mm 0.00 in0.0 mm 0.02 in0.5 mm
02:35 AM 50.2°F10.1°C 48.3°F9.1°C 93% 6.0 mph WSW9.7 kmh WSW 14.0 mph22.5 kmh 30.01 in1016.3 mb 0.00 in0.0 mm 0.00 in0.0 mm 0.02 in0.5 mm
02:30 AM 50.1°F10.1°C 48.2°F9.0°C 93% 6.1 mph WSW9.8 kmh WSW 13.0 mph20.9 kmh 30.01 in1016.3 mb 0.00 in0.0 mm 0.00 in0.0 mm 0.02 in0.5 mm
02:25 AM 50.1°F10.1°C 48.2°F9.0°C 93% 6.7 mph WSW10.8 kmh WSW 13.0 mph20.9 kmh 30.01 in1016.3 mb 0.00 in0.0 mm 0.00 in0.0 mm 0.02 in0.5 mm
02:20 AM 50.1°F10.1°C 48.2°F9.0°C 93% 7.0 mph WSW11.3 kmh WSW 14.0 mph22.5 kmh 30.02 in1016.6 mb 0.00 in0.0 mm 0.00 in0.0 mm 0.02 in0.5 mm
02:15 AM 50.0°F10.0°C 48.1°F8.9°C 93% 5.9 mph WSW9.5 kmh WSW 14.0 mph22.5 kmh 30.02 in1016.6 mb 0.00 in0.0 mm 0.00 in0.0 mm 0.02 in0.5 mm
02:10 AM 49.9°F9.9°C 48.0°F8.9°C 93% 5.0 mph WSW8.0 kmh WSW 14.0 mph22.5 kmh 30.02 in1016.6 mb 0.00 in0.0 mm 0.00 in0.0 mm 0.02 in0.5 mm
02:05 AM 49.7°F9.8°C 48.0°F8.9°C 94% 5.4 mph WSW8.7 kmh WSW 11.0 mph17.7 kmh 30.02 in1016.6 mb 0.00 in0.0 mm 0.00 in0.0 mm 0.02 in0.5 mm
02:00 AM 49.6°F9.8°C 47.9°F8.8°C 94% 5.9 mph WSW9.5 kmh WSW 12.0 mph19.3 kmh 30.02 in1016.6 mb 0.01 in0.3 mm 0.00 in0.0 mm 0.02 in0.5 mm
01:55 AM 49.6°F9.8°C 47.9°F8.8°C 94% 6.1 mph WSW9.8 kmh WSW 14.0 mph22.5 kmh 30.02 in1016.6 mb 0.01 in0.3 mm 0.00 in0.0 mm 0.02 in0.5 mm
01:50 AM 49.5°F9.7°C 47.8°F8.8°C 94% 6.1 mph WSW9.8 kmh WSW 14.0 mph22.5 kmh 30.02 in1016.6 mb 0.01 in0.3 mm 0.00 in0.0 mm 0.02 in0.5 mm
01:45 AM 49.4°F9.7°C 47.7°F8.7°C 94% 6.0 mph WSW9.7 kmh WSW 16.0 mph25.7 kmh 30.02 in1016.6 mb 0.01 in0.3 mm 0.00 in0.0 mm 0.02 in0.5 mm
01:40 AM 49.3°F9.6°C 47.6°F8.7°C 94% 6.1 mph WSW9.8 kmh WSW 16.0 mph25.7 kmh 30.02 in1016.6 mb 0.01 in0.3 mm 0.00 in0.0 mm 0.02 in0.5 mm
01:35 AM 49.3°F9.6°C 47.6°F8.7°C 94% 6.6 mph WSW10.6 kmh WSW 13.0 mph20.9 kmh 30.02 in1016.6 mb 0.02 in0.5 mm 0.00 in0.0 mm 0.02 in0.5 mm
01:30 AM 49.2°F9.6°C 47.5°F8.6°C 94% 7.0 mph WSW11.3 kmh WSW 13.0 mph20.9 kmh 30.02 in1016.6 mb 0.02 in0.5 mm 0.00 in0.0 mm 0.02 in0.5 mm
01:25 AM 49.1°F9.5°C 47.4°F8.6°C 94% 7.0 mph WSW11.3 kmh WSW 14.0 mph22.5 kmh 30.02 in1016.6 mb 0.02 in0.5 mm 0.00 in0.0 mm 0.02 in0.5 mm
01:20 AM 49.1°F9.5°C 47.4°F8.6°C 94% 7.4 mph WSW11.9 kmh WSW 15.0 mph24.1 kmh 30.02 in1016.6 mb 0.02 in0.5 mm 0.00 in0.0 mm 0.02 in0.5 mm
01:15 AM 49.0°F9.4°C 47.3°F8.5°C 94% 7.9 mph WSW12.7 kmh WSW 15.0 mph24.1 kmh 30.02 in1016.6 mb 0.02 in0.5 mm 0.00 in0.0 mm 0.02 in0.5 mm
01:10 AM 49.0°F9.4°C 47.3°F8.5°C 94% 8.1 mph WSW13.0 kmh WSW 14.0 mph22.5 kmh 30.03 in1016.9 mb 0.02 in0.5 mm 0.00 in0.0 mm 0.02 in0.5 mm
01:05 AM 49.0°F9.4°C 47.3°F8.5°C 94% 8.6 mph WSW13.8 kmh WSW 14.0 mph22.5 kmh 30.03 in1016.9 mb 0.02 in0.5 mm 0.12 in3.0 mm 0.02 in0.5 mm
01:00 AM 48.9°F9.4°C 47.2°F8.4°C 94% 8.1 mph WSW13.0 kmh WSW 16.0 mph25.7 kmh 30.03 in1016.9 mb 0.01 in0.3 mm 0.00 in0.0 mm 0.01 in0.3 mm
12:55 AM 48.9°F9.4°C 47.2°F8.4°C 94% 6.6 mph WSW10.6 kmh WSW 16.0 mph25.7 kmh 30.04 in1017.3 mb 0.01 in0.3 mm 0.00 in0.0 mm 0.01 in0.3 mm
12:50 AM 48.7°F9.3°C 47.1°F8.4°C 94% 6.1 mph WSW9.8 kmh WSW 15.0 mph24.1 kmh 30.04 in1017.3 mb 0.01 in0.3 mm 0.00 in0.0 mm 0.01 in0.3 mm
12:45 AM 48.7°F9.3°C 46.8°F8.2°C 93% 6.4 mph WSW10.3 kmh WSW 14.0 mph22.5 kmh 30.04 in1017.3 mb 0.01 in0.3 mm 0.00 in0.0 mm 0.01 in0.3 mm
12:40 AM 48.6°F9.2°C 46.7°F8.2°C 93% 6.6 mph WSW10.6 kmh WSW 14.0 mph22.5 kmh 30.04 in1017.3 mb 0.01 in0.3 mm 0.12 in3.0 mm 0.01 in0.3 mm
12:35 AM 48.5°F9.2°C 46.6°F8.1°C 93% 6.8 mph WSW10.9 kmh WSW 17.0 mph27.4 kmh 30.04 in1017.3 mb 0.00 in0.0 mm 0.00 in0.0 mm 0.00 in0.0 mm
12:30 AM 48.5°F9.2°C 46.6°F8.1°C 93% 7.3 mph WSW11.7 kmh WSW 17.0 mph27.4 kmh 30.05 in1017.6 mb 0.00 in0.0 mm 0.00 in0.0 mm 0.00 in0.0 mm
12:25 AM 48.5°F9.2°C 46.6°F8.1°C 93% 7.7 mph WSW12.4 kmh WSW 18.0 mph29.0 kmh 30.05 in1017.6 mb 0.00 in0.0 mm 0.00 in0.0 mm 0.00 in0.0 mm
12:20 AM 48.4°F9.1°C 46.5°F8.1°C 93% 7.7 mph WSW12.4 kmh WSW 18.0 mph29.0 kmh 30.05 in1017.6 mb 0.00 in0.0 mm 0.00 in0.0 mm 0.00 in0.0 mm
12:15 AM 48.3°F9.1°C 46.4°F8.0°C 93% 7.3 mph WSW11.7 kmh WSW 15.0 mph24.1 kmh 30.05 in1017.6 mb 0.00 in0.0 mm 0.00 in0.0 mm 0.00 in0.0 mm
12:10 AM 48.3°F9.1°C 46.4°F8.0°C 93% 7.3 mph WSW11.7 kmh WSW 15.0 mph24.1 kmh 30.05 in1017.6 mb 0.00 in0.0 mm 0.00 in0.0 mm 0.00 in0.0 mm
12:05 AM 48.2°F9.0°C 46.0°F7.8°C 92% 7.8 mph WSW12.6 kmh WSW 15.0 mph24.1 kmh 30.05 in1017.6 mb 0.00 in0.0 mm 0.00 in0.0 mm 0.00 in0.0 mm
12:00 AM 48.2°F9.0°C 46.0°F7.8°C 92% 7.5 mph WSW12.1 kmh WSW 16.0 mph25.7 kmh 30.05 in1017.6 mb 0.00 in0.0 mm 0.00 in0.0 mm 0.00 in0.0 mm